Terminal Aerodrome Forecast
Issued by NWS North Platte, NE

Home | Current Version | Previous Version | Text Only | Print | Product List | Glossary Off
Versions: 1 2 3 4 5 6 7 8 9 10 11 12 13 14 15 16 17 18 19 20

238
FTUS43 KLBF 250202 AAA
TAFVTN
TAF AMD
KVTN 250202Z 2502/2524 12011G20KT P6SM SCT150
     FM250600 20012KT P6SM FEW200 WS020/21040KT
     FM251100 21010KT P6SM FEW200
     FM251500 21012G20KT P6SM BKN200=

USA.gov is the U.S. government's official web portal to all federal, state and local government web resources and services.